Aviation Digital Data Service (ADDS)

Output produced by METARs form (0223 UTC 06 December 2020)
found at http://aviationweather.gov/metar/data/
 
METAR text: KCVH 060215Z AUTO 24004KT 10SM CLR 11/05 A3029 RMK A01
Conditions at: KCVH (HOLLISTER MUNI , CA, US) observed 0215 UTC 06 December 2020
Temperature: 11.0°C (52°F)
Dewpoint: 5.0°C (41°F) [RH = 66%]
Pressure (altimeter): 30.29 inches Hg (1025.8 mb)
Winds: from the WSW (240 degrees) at 5 MPH (4 knots; 2.1 m/s)
Visibility: 10 or more miles (16+ km)
Ceiling: at least 12,000 feet AGL
Clouds: sky clear below 12,000 feet AGL
Weather: automated observation with no human augmentation;
there may or may not be significant weather present at this time